sensor_id;sensor_type;location;lat;lon;timestamp;P1;durP1;ratioP1;P2;durP2;ratioP2
69260;SDS011;56378;52.404;20.816;2024-02-04T00:01:50;8.50;;;1.92;;
69260;SDS011;56378;52.404;20.816;2024-02-04T00:04:16;10.30;;;2.03;;
69260;SDS011;56378;52.404;20.816;2024-02-04T00:06:42;9.75;;;1.80;;
69260;SDS011;56378;52.404;20.816;2024-02-04T00:09:07;7.77;;;1.47;;
69260;SDS011;56378;52.404;20.816;2024-02-04T00:11:33;8.88;;;1.70;;
69260;SDS011;56378;52.404;20.816;2024-02-04T00:13:59;9.68;;;2.33;;
69260;SDS011;56378;52.404;20.816;2024-02-04T00:16:25;8.15;;;1.42;;
69260;SDS011;56378;52.404;20.816;2024-02-04T00:18:51;9.15;;;1.60;;
69260;SDS011;56378;52.404;20.816;2024-02-04T00:21:17;9.63;;;1.70;;
69260;SDS011;56378;52.404;20.816;2024-02-04T00:23:43;8.05;;;1.48;;
69260;SDS011;56378;52.404;20.816;2024-02-04T00:26:08;10.00;;;1.90;;
69260;SDS011;56378;52.404;20.816;2024-02-04T00:28:34;13.85;;;1.73;;
69260;SDS011;56378;52.404;20.816;2024-02-04T00:30:59;12.33;;;1.90;;
69260;SDS011;56378;52.404;20.816;2024-02-04T00:33:25;9.77;;;2.10;;
69260;SDS011;56378;52.404;20.816;2024-02-04T00:35:51;11.57;;;2.22;;
69260;SDS011;56378;52.404;20.816;2024-02-04T00:38:17;10.80;;;2.60;;
69260;SDS011;56378;52.404;20.816;2024-02-04T00:40:42;12.38;;;2.50;;
69260;SDS011;56378;52.404;20.816;2024-02-04T00:43:08;11.98;;;2.20;;
69260;SDS011;56378;52.404;20.816;2024-02-04T00:45:34;8.23;;;1.90;;
69260;SDS011;56378;52.404;20.816;2024-02-04T00:48:00;12.93;;;2.35;;
69260;SDS011;56378;52.404;20.816;2024-02-04T00:50:25;13.33;;;2.60;;
69260;SDS011;56378;52.404;20.816;2024-02-04T00:52:51;8.88;;;2.30;;
69260;SDS011;56378;52.404;20.816;2024-02-04T00:55:18;13.43;;;2.40;;
69260;SDS011;56378;52.404;20.816;2024-02-04T00:57:44;11.70;;;2.20;;
69260;SDS011;56378;52.404;20.816;2024-02-04T01:00:10;12.90;;;2.33;;
69260;SDS011;56378;52.404;20.816;2024-02-04T01:02:38;14.40;;;2.60;;
69260;SDS011;56378;52.404;20.816;2024-02-04T01:05:04;11.40;;;2.42;;
69260;SDS011;56378;52.404;20.816;2024-02-04T01:07:30;13.48;;;2.30;;
69260;SDS011;56378;52.404;20.816;2024-02-04T01:09:56;10.67;;;2.30;;
69260;SDS011;56378;52.404;20.816;2024-02-04T01:12:22;11.05;;;2.30;;
69260;SDS011;56378;52.404;20.816;2024-02-04T01:14:47;9.20;;;2.10;;
69260;SDS011;56378;52.404;20.816;2024-02-04T01:17:13;14.25;;;2.53;;
69260;SDS011;56378;52.404;20.816;2024-02-04T01:19:38;12.20;;;2.50;;
69260;SDS011;56378;52.404;20.816;2024-02-04T01:22:04;16.17;;;2.40;;
69260;SDS011;56378;52.404;20.816;2024-02-04T01:24:30;9.80;;;2.20;;
69260;SDS011;56378;52.404;20.816;2024-02-04T01:26:56;11.93;;;2.38;;
69260;SDS011;56378;52.404;20.816;2024-02-04T01:29:22;11.75;;;2.10;;
69260;SDS011;56378;52.404;20.816;2024-02-04T01:31:48;9.73;;;2.07;;
69260;SDS011;56378;52.404;20.816;2024-02-04T01:34:13;11.90;;;2.28;;
69260;SDS011;56378;52.404;20.816;2024-02-04T01:36:39;11.70;;;2.03;;
69260;SDS011;56378;52.404;20.816;2024-02-04T01:39:05;11.38;;;2.10;;
69260;SDS011;56378;52.404;20.816;2024-02-04T01:41:30;10.50;;;2.35;;
69260;SDS011;56378;52.404;20.816;2024-02-04T01:43:56;11.47;;;2.13;;
69260;SDS011;56378;52.404;20.816;2024-02-04T01:46:22;7.35;;;2.05;;
69260;SDS011;56378;52.404;20.816;2024-02-04T01:48:48;8.20;;;2.07;;
69260;SDS011;56378;52.404;20.816;2024-02-04T01:51:14;8.82;;;1.75;;
69260;SDS011;56378;52.404;20.816;2024-02-04T01:53:41;6.70;;;1.85;;
69260;SDS011;56378;52.404;20.816;2024-02-04T01:56:10;12.38;;;1.77;;
69260;SDS011;56378;52.404;20.816;2024-02-04T01:58:37;12.98;;;1.85;;
69260;SDS011;56378;52.404;20.816;2024-02-04T02:01:04;7.37;;;1.63;;
69260;SDS011;56378;52.404;20.816;2024-02-04T02:03:31;10.30;;;1.85;;
69260;SDS011;56378;52.404;20.816;2024-02-04T02:05:57;10.25;;;1.90;;
69260;SDS011;56378;52.404;20.816;2024-02-04T02:08:24;8.27;;;1.67;;
69260;SDS011;56378;52.404;20.816;2024-02-04T02:10:50;8.10;;;1.80;;
69260;SDS011;56378;52.404;20.816;2024-02-04T02:13:21;9.70;;;2.00;;
69260;SDS011;56378;52.404;20.816;2024-02-04T02:15:51;6.78;;;1.50;;
69260;SDS011;56378;52.404;20.816;2024-02-04T02:18:29;7.22;;;1.55;;
69260;SDS011;56378;52.404;20.816;2024-02-04T02:21:16;10.00;;;1.73;;
69260;SDS011;56378;52.404;20.816;2024-02-04T02:26:49;10.57;;;1.53;;
69260;SDS011;56378;52.404;20.816;2024-02-04T02:29:16;7.57;;;1.67;;
69260;SDS011;56378;52.404;20.816;2024-02-04T02:31:41;11.07;;;2.00;;
69260;SDS011;56378;52.404;20.816;2024-02-04T02:34:08;11.40;;;2.08;;
69260;SDS011;56378;52.404;20.816;2024-02-04T02:36:45;10.13;;;1.83;;
69260;SDS011;56378;52.404;20.816;2024-02-04T02:39:48;6.18;;;1.67;;
69260;SDS011;56378;52.404;20.816;2024-02-04T02:42:22;7.82;;;1.70;;
69260;SDS011;56378;52.404;20.816;2024-02-04T02:44:50;9.13;;;2.08;;
69260;SDS011;56378;52.404;20.816;2024-02-04T02:47:18;8.35;;;1.70;;
69260;SDS011;56378;52.404;20.816;2024-02-04T02:49:45;10.88;;;1.80;;
69260;SDS011;56378;52.404;20.816;2024-02-04T02:52:11;8.68;;;1.83;;
69260;SDS011;56378;52.404;20.816;2024-02-04T02:54:37;11.50;;;2.00;;
69260;SDS011;56378;52.404;20.816;2024-02-04T02:57:02;9.55;;;1.70;;
69260;SDS011;56378;52.404;20.816;2024-02-04T02:59:28;9.13;;;2.00;;
69260;SDS011;56378;52.404;20.816;2024-02-04T03:01:54;10.10;;;1.80;;
69260;SDS011;56378;52.404;20.816;2024-02-04T03:04:20;9.70;;;2.00;;
69260;SDS011;56378;52.404;20.816;2024-02-04T03:06:45;9.13;;;1.87;;
69260;SDS011;56378;52.404;20.816;2024-02-04T03:09:11;11.37;;;1.80;;
69260;SDS011;56378;52.404;20.816;2024-02-04T03:11:38;10.07;;;1.77;;
69260;SDS011;56378;52.404;20.816;2024-02-04T03:14:03;10.38;;;1.65;;
69260;SDS011;56378;52.404;20.816;2024-02-04T03:16:29;7.53;;;1.70;;
69260;SDS011;56378;52.404;20.816;2024-02-04T03:18:55;8.73;;;1.92;;
69260;SDS011;56378;52.404;20.816;2024-02-04T03:21:20;7.27;;;1.30;;
69260;SDS011;56378;52.404;20.816;2024-02-04T03:23:47;9.85;;;1.88;;
69260;SDS011;56378;52.404;20.816;2024-02-04T03:26:16;8.03;;;1.70;;
69260;SDS011;56378;52.404;20.816;2024-02-04T03:28:45;10.95;;;1.70;;
69260;SDS011;56378;52.404;20.816;2024-02-04T03:31:10;9.38;;;1.55;;
69260;SDS011;56378;52.404;20.816;2024-02-04T03:33:36;8.43;;;1.37;;
69260;SDS011;56378;52.404;20.816;2024-02-04T03:36:02;12.48;;;1.40;;
69260;SDS011;56378;52.404;20.816;2024-02-04T03:38:28;8.83;;;1.47;;
69260;SDS011;56378;52.404;20.816;2024-02-04T03:40:54;9.70;;;1.80;;
69260;SDS011;56378;52.404;20.816;2024-02-04T03:43:19;8.82;;;1.70;;
69260;SDS011;56378;52.404;20.816;2024-02-04T03:45:45;6.68;;;1.50;;
69260;SDS011;56378;52.404;20.816;2024-02-04T03:48:11;10.27;;;1.67;;
69260;SDS011;56378;52.404;20.816;2024-02-04T03:50:37;7.55;;;1.85;;
69260;SDS011;56378;52.404;20.816;2024-02-04T03:53:02;10.70;;;2.13;;
69260;SDS011;56378;52.404;20.816;2024-02-04T03:55:28;7.90;;;1.30;;
69260;SDS011;56378;52.404;20.816;2024-02-04T03:57:54;8.47;;;1.50;;
69260;SDS011;56378;52.404;20.816;2024-02-04T04:00:22;7.65;;;1.73;;
69260;SDS011;56378;52.404;20.816;2024-02-04T04:02:47;10.68;;;1.45;;
69260;SDS011;56378;52.404;20.816;2024-02-04T04:05:13;8.77;;;1.77;;
69260;SDS011;56378;52.404;20.816;2024-02-04T04:07:39;9.15;;;1.80;;
69260;SDS011;56378;52.404;20.816;2024-02-04T04:10:05;8.13;;;1.60;;
69260;SDS011;56378;52.404;20.816;2024-02-04T04:12:31;9.60;;;1.67;;
69260;SDS011;56378;52.404;20.816;2024-02-04T04:14:57;10.95;;;1.67;;
69260;SDS011;56378;52.404;20.816;2024-02-04T04:17:23;7.03;;;1.33;;
69260;SDS011;56378;52.404;20.816;2024-02-04T04:19:49;7.85;;;1.50;;
69260;SDS011;56378;52.404;20.816;2024-02-04T04:22:14;8.65;;;1.35;;
69260;SDS011;56378;52.404;20.816;2024-02-04T04:24:40;7.63;;;1.80;;
69260;SDS011;56378;52.404;20.816;2024-02-04T04:27:06;8.77;;;1.20;;
69260;SDS011;56378;52.404;20.816;2024-02-04T04:29:31;6.35;;;1.52;;
69260;SDS011;56378;52.404;20.816;2024-02-04T04:31:57;15.47;;;1.60;;
69260;SDS011;56378;52.404;20.816;2024-02-04T04:34:23;7.05;;;1.27;;
69260;SDS011;56378;52.404;20.816;2024-02-04T04:36:48;6.77;;;1.60;;
69260;SDS011;56378;52.404;20.816;2024-02-04T04:39:14;11.38;;;1.80;;
69260;SDS011;56378;52.404;20.816;2024-02-04T04:41:41;8.27;;;1.47;;
69260;SDS011;56378;52.404;20.816;2024-02-04T04:44:08;7.07;;;1.30;;
69260;SDS011;56378;52.404;20.816;2024-02-04T04:46:37;10.13;;;1.70;;
69260;SDS011;56378;52.404;20.816;2024-02-04T04:49:04;7.75;;;1.42;;
69260;SDS011;56378;52.404;20.816;2024-02-04T04:51:30;8.60;;;1.80;;
69260;SDS011;56378;52.404;20.816;2024-02-04T04:53:57;6.32;;;1.10;;
69260;SDS011;56378;52.404;20.816;2024-02-04T04:56:22;6.32;;;1.10;;
69260;SDS011;56378;52.404;20.816;2024-02-04T04:58:48;9.00;;;1.70;;
69260;SDS011;56378;52.404;20.816;2024-02-04T05:01:15;5.82;;;1.15;;
69260;SDS011;56378;52.404;20.816;2024-02-04T05:03:41;5.80;;;1.47;;
69260;SDS011;56378;52.404;20.816;2024-02-04T05:06:07;8.82;;;1.30;;
69260;SDS011;56378;52.404;20.816;2024-02-04T05:08:32;8.50;;;1.60;;
69260;SDS011;56378;52.404;20.816;2024-02-04T05:10:58;12.20;;;1.70;;
69260;SDS011;56378;52.404;20.816;2024-02-04T05:13:24;9.30;;;1.40;;
69260;SDS011;56378;52.404;20.816;2024-02-04T05:15:50;7.65;;;1.05;;
69260;SDS011;56378;52.404;20.816;2024-02-04T05:18:15;8.13;;;1.00;;
69260;SDS011;56378;52.404;20.816;2024-02-04T05:20:41;6.72;;;0.93;;
69260;SDS011;56378;52.404;20.816;2024-02-04T05:23:08;7.55;;;1.15;;
69260;SDS011;56378;52.404;20.816;2024-02-04T05:25:34;9.85;;;1.50;;
69260;SDS011;56378;52.404;20.816;2024-02-04T05:28:00;5.30;;;0.90;;
69260;SDS011;56378;52.404;20.816;2024-02-04T05:30:25;7.60;;;1.13;;
69260;SDS011;56378;52.404;20.816;2024-02-04T05:32:51;7.57;;;1.05;;
69260;SDS011;56378;52.404;20.816;2024-02-04T05:35:17;5.97;;;0.73;;
69260;SDS011;56378;52.404;20.816;2024-02-04T05:37:43;6.75;;;0.90;;
69260;SDS011;56378;52.404;20.816;2024-02-04T05:40:08;9.93;;;0.97;;
69260;SDS011;56378;52.404;20.816;2024-02-04T05:42:34;9.90;;;1.20;;
69260;SDS011;56378;52.404;20.816;2024-02-04T05:45:01;6.85;;;1.00;;
69260;SDS011;56378;52.404;20.816;2024-02-04T05:47:28;11.77;;;1.38;;
69260;SDS011;56378;52.404;20.816;2024-02-04T05:49:53;10.70;;;1.20;;
69260;SDS011;56378;52.404;20.816;2024-02-04T05:52:19;9.33;;;1.30;;
69260;SDS011;56378;52.404;20.816;2024-02-04T05:54:45;10.43;;;1.50;;
69260;SDS011;56378;52.404;20.816;2024-02-04T05:57:10;7.73;;;1.40;;
69260;SDS011;56378;52.404;20.816;2024-02-04T05:59:36;7.35;;;1.10;;
69260;SDS011;56378;52.404;20.816;2024-02-04T06:02:03;8.73;;;1.42;;
69260;SDS011;56378;52.404;20.816;2024-02-04T06:04:29;8.07;;;1.30;;
69260;SDS011;56378;52.404;20.816;2024-02-04T06:06:55;14.73;;;2.88;;
69260;SDS011;56378;52.404;20.816;2024-02-04T06:09:21;13.63;;;3.57;;
69260;SDS011;56378;52.404;20.816;2024-02-04T06:11:46;11.77;;;3.97;;
69260;SDS011;56378;52.404;20.816;2024-02-04T06:14:12;9.33;;;2.60;;
69260;SDS011;56378;52.404;20.816;2024-02-04T06:16:38;10.35;;;1.90;;
69260;SDS011;56378;52.404;20.816;2024-02-04T06:19:04;10.43;;;2.53;;
69260;SDS011;56378;52.404;20.816;2024-02-04T06:21:30;12.90;;;1.80;;
69260;SDS011;56378;52.404;20.816;2024-02-04T06:23:56;9.30;;;1.85;;
69260;SDS011;56378;52.404;20.816;2024-02-04T06:26:22;7.63;;;1.33;;
69260;SDS011;56378;52.404;20.816;2024-02-04T06:28:48;10.57;;;1.88;;
69260;SDS011;56378;52.404;20.816;2024-02-04T06:31:15;10.07;;;1.70;;
69260;SDS011;56378;52.404;20.816;2024-02-04T06:33:41;6.32;;;1.27;;
69260;SDS011;56378;52.404;20.816;2024-02-04T06:36:10;13.57;;;1.97;;
69260;SDS011;56378;52.404;20.816;2024-02-04T06:38:36;9.00;;;1.45;;
69260;SDS011;56378;52.404;20.816;2024-02-04T06:41:02;8.60;;;1.63;;
69260;SDS011;56378;52.404;20.816;2024-02-04T06:43:28;7.40;;;1.45;;
69260;SDS011;56378;52.404;20.816;2024-02-04T06:45:54;11.85;;;2.85;;
69260;SDS011;56378;52.404;20.816;2024-02-04T06:48:19;8.93;;;1.63;;
69260;SDS011;56378;52.404;20.816;2024-02-04T06:50:45;11.32;;;1.40;;
69260;SDS011;56378;52.404;20.816;2024-02-04T06:53:13;10.60;;;1.60;;
69260;SDS011;56378;52.404;20.816;2024-02-04T06:55:39;8.67;;;1.37;;
69260;SDS011;56378;52.404;20.816;2024-02-04T06:58:04;7.47;;;1.63;;
69260;SDS011;56378;52.404;20.816;2024-02-04T07:00:30;11.30;;;1.80;;
69260;SDS011;56378;52.404;20.816;2024-02-04T07:02:56;11.55;;;1.80;;
69260;SDS011;56378;52.404;20.816;2024-02-04T07:05:21;13.23;;;1.73;;
69260;SDS011;56378;52.404;20.816;2024-02-04T07:07:48;8.32;;;1.45;;
69260;SDS011;56378;52.404;20.816;2024-02-04T07:10:14;8.95;;;1.23;;
69260;SDS011;56378;52.404;20.816;2024-02-04T07:12:41;13.20;;;1.43;;
69260;SDS011;56378;52.404;20.816;2024-02-04T07:15:07;6.88;;;1.15;;
69260;SDS011;56378;52.404;20.816;2024-02-04T07:17:33;7.53;;;1.23;;
69260;SDS011;56378;52.404;20.816;2024-02-04T07:20:00;7.05;;;1.30;;
69260;SDS011;56378;52.404;20.816;2024-02-04T07:22:26;8.63;;;1.40;;
69260;SDS011;56378;52.404;20.816;2024-02-04T07:24:52;10.80;;;1.73;;
69260;SDS011;56378;52.404;20.816;2024-02-04T07:27:17;9.07;;;1.53;;
69260;SDS011;56378;52.404;20.816;2024-02-04T07:29:43;13.85;;;2.50;;
69260;SDS011;56378;52.404;20.816;2024-02-04T07:32:09;13.98;;;1.73;;
69260;SDS011;56378;52.404;20.816;2024-02-04T07:34:35;9.03;;;2.03;;
69260;SDS011;56378;52.404;20.816;2024-02-04T07:37:01;8.35;;;1.50;;
69260;SDS011;56378;52.404;20.816;2024-02-04T07:39:27;10.52;;;1.80;;
69260;SDS011;56378;52.404;20.816;2024-02-04T07:41:55;8.43;;;1.55;;
69260;SDS011;56378;52.404;20.816;2024-02-04T07:44:24;6.00;;;1.17;;
69260;SDS011;56378;52.404;20.816;2024-02-04T07:46:53;10.45;;;1.42;;
69260;SDS011;56378;52.404;20.816;2024-02-04T07:49:19;9.35;;;2.20;;
69260;SDS011;56378;52.404;20.816;2024-02-04T07:51:45;8.25;;;1.30;;
69260;SDS011;56378;52.404;20.816;2024-02-04T07:54:10;8.93;;;1.27;;
69260;SDS011;56378;52.404;20.816;2024-02-04T07:56:36;13.98;;;1.80;;
69260;SDS011;56378;52.404;20.816;2024-02-04T07:59:02;7.93;;;1.27;;
69260;SDS011;56378;52.404;20.816;2024-02-04T08:01:29;11.07;;;1.40;;
69260;SDS011;56378;52.404;20.816;2024-02-04T08:03:55;10.07;;;1.70;;
69260;SDS011;56378;52.404;20.816;2024-02-04T08:06:21;8.43;;;1.55;;
69260;SDS011;56378;52.404;20.816;2024-02-04T08:08:47;11.73;;;1.57;;
69260;SDS011;56378;52.404;20.816;2024-02-04T08:11:22;12.35;;;3.47;;
69260;SDS011;56378;52.404;20.816;2024-02-04T08:13:47;10.70;;;1.67;;
69260;SDS011;56378;52.404;20.816;2024-02-04T08:16:13;7.03;;;1.38;;
69260;SDS011;56378;52.404;20.816;2024-02-04T08:18:39;7.57;;;1.37;;
69260;SDS011;56378;52.404;20.816;2024-02-04T08:21:05;13.43;;;1.48;;
69260;SDS011;56378;52.404;20.816;2024-02-04T08:23:30;11.03;;;1.90;;
69260;SDS011;56378;52.404;20.816;2024-02-04T08:25:57;9.35;;;1.30;;
69260;SDS011;56378;52.404;20.816;2024-02-04T08:28:23;6.55;;;1.30;;
69260;SDS011;56378;52.404;20.816;2024-02-04T08:30:49;11.55;;;1.90;;
69260;SDS011;56378;52.404;20.816;2024-02-04T08:33:15;11.57;;;2.23;;
69260;SDS011;56378;52.404;20.816;2024-02-04T08:35:41;6.85;;;1.60;;
69260;SDS011;56378;52.404;20.816;2024-02-04T08:38:07;8.17;;;1.40;;
69260;SDS011;56378;52.404;20.816;2024-02-04T08:40:32;11.55;;;1.70;;
69260;SDS011;56378;52.404;20.816;2024-02-04T08:42:58;9.10;;;1.80;;
69260;SDS011;56378;52.404;20.816;2024-02-04T08:45:23;9.80;;;1.63;;
69260;SDS011;56378;52.404;20.816;2024-02-04T08:47:49;16.50;;;3.30;;
69260;SDS011;56378;52.404;20.816;2024-02-04T08:50:15;10.30;;;2.20;;
69260;SDS011;56378;52.404;20.816;2024-02-04T08:52:41;9.33;;;1.83;;
69260;SDS011;56378;52.404;20.816;2024-02-04T08:55:07;11.07;;;1.70;;
69260;SDS011;56378;52.404;20.816;2024-02-04T08:57:34;9.75;;;1.92;;
69260;SDS011;56378;52.404;20.816;2024-02-04T08:59:59;11.10;;;2.00;;
69260;SDS011;56378;52.404;20.816;2024-02-04T09:02:25;11.52;;;2.72;;
69260;SDS011;56378;52.404;20.816;2024-02-04T09:04:51;12.10;;;1.98;;
69260;SDS011;56378;52.404;20.816;2024-02-04T09:07:17;11.15;;;1.70;;
69260;SDS011;56378;52.404;20.816;2024-02-04T09:09:42;10.55;;;2.20;;
69260;SDS011;56378;52.404;20.816;2024-02-04T09:12:09;11.53;;;2.10;;
69260;SDS011;56378;52.404;20.816;2024-02-04T09:14:35;11.00;;;2.20;;
69260;SDS011;56378;52.404;20.816;2024-02-04T09:17:04;16.40;;;2.22;;
69260;SDS011;56378;52.404;20.816;2024-02-04T09:19:31;9.48;;;2.20;;
69260;SDS011;56378;52.404;20.816;2024-02-04T09:21:57;10.00;;;1.85;;
69260;SDS011;56378;52.404;20.816;2024-02-04T09:24:26;9.50;;;1.70;;
69260;SDS011;56378;52.404;20.816;2024-02-04T09:26:52;13.50;;;1.83;;
69260;SDS011;56378;52.404;20.816;2024-02-04T09:29:18;12.77;;;1.90;;
69260;SDS011;56378;52.404;20.816;2024-02-04T09:31:44;10.10;;;1.55;;
69260;SDS011;56378;52.404;20.816;2024-02-04T09:34:11;13.60;;;2.50;;
69260;SDS011;56378;52.404;20.816;2024-02-04T09:36:36;12.03;;;1.87;;
69260;SDS011;56378;52.404;20.816;2024-02-04T09:39:02;10.02;;;1.52;;
69260;SDS011;56378;52.404;20.816;2024-02-04T09:41:28;8.05;;;1.70;;
69260;SDS011;56378;52.404;20.816;2024-02-04T09:43:54;10.57;;;1.47;;
69260;SDS011;56378;52.404;20.816;2024-02-04T09:46:21;12.20;;;2.13;;
69260;SDS011;56378;52.404;20.816;2024-02-04T09:48:47;10.20;;;1.67;;
69260;SDS011;56378;52.404;20.816;2024-02-04T09:51:14;10.70;;;1.90;;
69260;SDS011;56378;52.404;20.816;2024-02-04T09:53:43;12.77;;;1.73;;
69260;SDS011;56378;52.404;20.816;2024-02-04T09:56:09;11.93;;;2.05;;
69260;SDS011;56378;52.404;20.816;2024-02-04T09:58:37;9.63;;;1.80;;
69260;SDS011;56378;52.404;20.816;2024-02-04T10:01:06;12.90;;;1.80;;
69260;SDS011;56378;52.404;20.816;2024-02-04T10:03:35;12.02;;;2.28;;
69260;SDS011;56378;52.404;20.816;2024-02-04T10:06:00;7.33;;;1.13;;
69260;SDS011;56378;52.404;20.816;2024-02-04T10:08:26;7.43;;;1.45;;
69260;SDS011;56378;52.404;20.816;2024-02-04T10:10:52;7.30;;;1.40;;
69260;SDS011;56378;52.404;20.816;2024-02-04T10:13:19;9.68;;;1.60;;
69260;SDS011;56378;52.404;20.816;2024-02-04T10:15:46;10.40;;;1.67;;
69260;SDS011;56378;52.404;20.816;2024-02-04T10:18:13;7.57;;;1.50;;
69260;SDS011;56378;52.404;20.816;2024-02-04T10:20:38;7.30;;;1.70;;
69260;SDS011;56378;52.404;20.816;2024-02-04T10:23:04;9.18;;;1.55;;
69260;SDS011;56378;52.404;20.816;2024-02-04T10:25:30;14.23;;;2.00;;
69260;SDS011;56378;52.404;20.816;2024-02-04T10:27:56;9.65;;;1.50;;
69260;SDS011;56378;52.404;20.816;2024-02-04T10:30:23;8.20;;;1.55;;
69260;SDS011;56378;52.404;20.816;2024-02-04T10:32:52;12.00;;;1.85;;
69260;SDS011;56378;52.404;20.816;2024-02-04T10:35:22;9.07;;;1.95;;
69260;SDS011;56378;52.404;20.816;2024-02-04T10:37:50;14.02;;;1.90;;
69260;SDS011;56378;52.404;20.816;2024-02-04T10:40:16;8.38;;;1.50;;
69260;SDS011;56378;52.404;20.816;2024-02-04T10:42:43;9.43;;;2.22;;
69260;SDS011;56378;52.404;20.816;2024-02-04T10:45:09;10.60;;;1.90;;
69260;SDS011;56378;52.404;20.816;2024-02-04T10:47:39;10.93;;;1.67;;
69260;SDS011;56378;52.404;20.816;2024-02-04T10:50:06;10.95;;;1.70;;
69260;SDS011;56378;52.404;20.816;2024-02-04T10:52:39;7.15;;;1.40;;
69260;SDS011;56378;52.404;20.816;2024-02-04T10:55:10;10.18;;;1.63;;
69260;SDS011;56378;52.404;20.816;2024-02-04T10:57:37;13.88;;;2.60;;
69260;SDS011;56378;52.404;20.816;2024-02-04T11:00:03;10.40;;;1.50;;
69260;SDS011;56378;52.404;20.816;2024-02-04T11:02:36;12.13;;;1.95;;
69260;SDS011;56378;52.404;20.816;2024-02-04T11:05:04;18.27;;;3.90;;
69260;SDS011;56378;52.404;20.816;2024-02-04T11:07:34;7.85;;;1.50;;
69260;SDS011;56378;52.404;20.816;2024-02-04T11:10:03;12.93;;;2.00;;
69260;SDS011;56378;52.404;20.816;2024-02-04T11:12:29;9.10;;;1.40;;
69260;SDS011;56378;52.404;20.816;2024-02-04T11:14:58;10.60;;;1.73;;
69260;SDS011;56378;52.404;20.816;2024-02-04T11:28:11;8.90;;;1.88;;
69260;SDS011;56378;52.404;20.816;2024-02-04T11:30:37;11.07;;;2.15;;
69260;SDS011;56378;52.404;20.816;2024-02-04T11:33:04;10.77;;;2.20;;
69260;SDS011;56378;52.404;20.816;2024-02-04T11:35:32;8.50;;;2.00;;
69260;SDS011;56378;52.404;20.816;2024-02-04T11:37:58;11.07;;;2.15;;
69260;SDS011;56378;52.404;20.816;2024-02-04T11:40:30;8.98;;;1.77;;
69260;SDS011;56378;52.404;20.816;2024-02-04T11:43:12;12.38;;;1.90;;
69260;SDS011;56378;52.404;20.816;2024-02-04T11:45:43;10.65;;;3.03;;
69260;SDS011;56378;52.404;20.816;2024-02-04T11:48:11;17.80;;;3.95;;
69260;SDS011;56378;52.404;20.816;2024-02-04T11:50:40;10.65;;;2.72;;
69260;SDS011;56378;52.404;20.816;2024-02-04T11:53:10;10.98;;;2.20;;
69260;SDS011;56378;52.404;20.816;2024-02-04T11:55:40;11.80;;;2.40;;
69260;SDS011;56378;52.404;20.816;2024-02-04T11:58:06;10.15;;;2.20;;
69260;SDS011;56378;52.404;20.816;2024-02-04T12:00:34;11.55;;;2.60;;
69260;SDS011;56378;52.404;20.816;2024-02-04T12:03:04;13.88;;;2.78;;
69260;SDS011;56378;52.404;20.816;2024-02-04T12:05:34;13.10;;;2.70;;
69260;SDS011;56378;52.404;20.816;2024-02-04T12:08:01;12.77;;;2.80;;
69260;SDS011;56378;52.404;20.816;2024-02-04T12:10:32;14.05;;;3.35;;
69260;SDS011;56378;52.404;20.816;2024-02-04T12:13:04;13.43;;;3.05;;
69260;SDS011;56378;52.404;20.816;2024-02-04T12:15:34;21.53;;;4.10;;
69260;SDS011;56378;52.404;20.816;2024-02-04T12:18:10;18.77;;;3.92;;
69260;SDS011;56378;52.404;20.816;2024-02-04T12:20:37;12.63;;;3.13;;
69260;SDS011;56378;52.404;20.816;2024-02-04T12:23:03;13.57;;;2.85;;
69260;SDS011;56378;52.404;20.816;2024-02-04T12:25:30;14.38;;;3.13;;
69260;SDS011;56378;52.404;20.816;2024-02-04T12:27:59;11.03;;;3.00;;
69260;SDS011;56378;52.404;20.816;2024-02-04T12:30:28;12.68;;;3.13;;
69260;SDS011;56378;52.404;20.816;2024-02-04T12:32:57;11.45;;;2.35;;
69260;SDS011;56378;52.404;20.816;2024-02-04T12:35:24;9.60;;;2.20;;
69260;SDS011;56378;52.404;20.816;2024-02-04T12:37:53;9.55;;;2.30;;
69260;SDS011;56378;52.404;20.816;2024-02-04T12:40:23;11.67;;;2.10;;
69260;SDS011;56378;52.404;20.816;2024-02-04T12:45:19;9.68;;;2.53;;
69260;SDS011;56378;52.404;20.816;2024-02-04T12:47:48;9.38;;;1.90;;
69260;SDS011;56378;52.404;20.816;2024-02-04T12:50:18;10.82;;;2.30;;
69260;SDS011;56378;52.404;20.816;2024-02-04T12:55:34;8.88;;;2.67;;
69260;SDS011;56378;52.404;20.816;2024-02-04T12:58:01;8.52;;;2.10;;
69260;SDS011;56378;52.404;20.816;2024-02-04T13:00:28;9.88;;;2.13;;
69260;SDS011;56378;52.404;20.816;2024-02-04T13:02:55;9.40;;;2.10;;
69260;SDS011;56378;52.404;20.816;2024-02-04T13:05:21;9.20;;;2.20;;
69260;SDS011;56378;52.404;20.816;2024-02-04T13:07:56;9.48;;;1.95;;
69260;SDS011;56378;52.404;20.816;2024-02-04T13:10:26;7.00;;;1.92;;
69260;SDS011;56378;52.404;20.816;2024-02-04T13:13:01;12.60;;;2.17;;
69260;SDS011;56378;52.404;20.816;2024-02-04T13:15:37;12.25;;;2.25;;
69260;SDS011;56378;52.404;20.816;2024-02-04T13:18:05;11.63;;;1.95;;
69260;SDS011;56378;52.404;20.816;2024-02-04T13:20:31;10.93;;;2.58;;
69260;SDS011;56378;52.404;20.816;2024-02-04T13:22:56;9.10;;;2.03;;
69260;SDS011;56378;52.404;20.816;2024-02-04T13:25:23;9.52;;;2.13;;
69260;SDS011;56378;52.404;20.816;2024-02-04T13:27:49;6.97;;;2.03;;
69260;SDS011;56378;52.404;20.816;2024-02-04T13:30:15;13.43;;;2.33;;
69260;SDS011;56378;52.404;20.816;2024-02-04T13:32:42;10.38;;;2.35;;
69260;SDS011;56378;52.404;20.816;2024-02-04T13:35:08;10.30;;;2.97;;
69260;SDS011;56378;52.404;20.816;2024-02-04T13:37:41;13.48;;;3.17;;
69260;SDS011;56378;52.404;20.816;2024-02-04T13:40:12;12.68;;;4.30;;
69260;SDS011;56378;52.404;20.816;2024-02-04T13:42:39;9.23;;;3.17;;
69260;SDS011;56378;52.404;20.816;2024-02-04T13:45:05;8.27;;;2.92;;
69260;SDS011;56378;52.404;20.816;2024-02-04T13:47:31;9.50;;;3.22;;
69260;SDS011;56378;52.404;20.816;2024-02-04T13:49:57;11.52;;;2.92;;
69260;SDS011;56378;52.404;20.816;2024-02-04T13:52:23;10.07;;;2.90;;
69260;SDS011;56378;52.404;20.816;2024-02-04T13:54:49;9.93;;;2.85;;
69260;SDS011;56378;52.404;20.816;2024-02-04T13:57:14;11.73;;;2.90;;
69260;SDS011;56378;52.404;20.816;2024-02-04T13:59:40;12.38;;;2.88;;
69260;SDS011;56378;52.404;20.816;2024-02-04T14:02:07;12.50;;;3.07;;
69260;SDS011;56378;52.404;20.816;2024-02-04T14:04:33;9.23;;;2.70;;
69260;SDS011;56378;52.404;20.816;2024-02-04T14:07:00;9.23;;;2.50;;
69260;SDS011;56378;52.404;20.816;2024-02-04T14:09:26;10.93;;;2.80;;
69260;SDS011;56378;52.404;20.816;2024-02-04T14:11:52;40.33;;;19.07;;
69260;SDS011;56378;52.404;20.816;2024-02-04T14:14:20;28.42;;;11.65;;
69260;SDS011;56378;52.404;20.816;2024-02-04T14:16:46;24.27;;;10.00;;
69260;SDS011;56378;52.404;20.816;2024-02-04T14:19:12;13.65;;;4.28;;
69260;SDS011;56378;52.404;20.816;2024-02-04T14:21:39;10.18;;;3.45;;
69260;SDS011;56378;52.404;20.816;2024-02-04T14:24:06;11.02;;;3.42;;
69260;SDS011;56378;52.404;20.816;2024-02-04T14:26:31;10.15;;;2.50;;
69260;SDS011;56378;52.404;20.816;2024-02-04T14:28:58;11.30;;;2.90;;
69260;SDS011;56378;52.404;20.816;2024-02-04T14:31:23;9.23;;;2.00;;
69260;SDS011;56378;52.404;20.816;2024-02-04T14:33:49;8.97;;;2.30;;
69260;SDS011;56378;52.404;20.816;2024-02-04T14:36:15;10.23;;;2.63;;
69260;SDS011;56378;52.404;20.816;2024-02-04T14:38:41;8.13;;;2.25;;
69260;SDS011;56378;52.404;20.816;2024-02-04T14:41:07;8.35;;;2.05;;
69260;SDS011;56378;52.404;20.816;2024-02-04T14:43:33;5.83;;;1.83;;
69260;SDS011;56378;52.404;20.816;2024-02-04T14:45:59;9.95;;;2.00;;